Time;durP1;ratioP1;P1;durP2;ratioP2;P2;SDS_P1;SDS_P2;PMS_P1;PMS_P2;Temp;Humidity;BMP_temperature;BMP_pressure;BME280_temperature;BME280_humidity;BME280_pressure;Samples;Min_cycle;Max_cycle;Signal;HPM_P1;HPM_P2
2021/04/15 12:01:55;;;;;;;13.18;3.50;;;12.60;39.90;;;;;;4268576;27;20123;-80
2021/04/15 12:04:05;;;;;;;10.52;3.55;;;12.70;39.60;;;;;;4235105;28;20118;-79
2021/04/15 12:06:17;;;;;;;13.13;3.60;;;13.50;39.40;;;;;;4232746;28;20055;-77
2021/04/15 12:08:23;;;;;;;11.93;5.93;;;12.30;37.00;;;;;;4231768;28;20040;-78
2021/04/15 12:10:29;;;;;;;30.75;11.73;;;14.10;38.50;;;;;;4231145;28;20051;-75
2021/04/15 12:12:36;;;;;;;8.90;4.05;;;15.20;41.50;;;;;;4229572;28;20083;-77
2021/04/15 12:14:41;;;;;;;9.93;3.85;;;14.40;36.70;;;;;;4229967;28;20071;-76
2021/04/15 12:17:00;;;;;;;11.15;4.00;;;14.00;38.20;;;;;;4229243;28;20059;-80
2021/04/15 12:19:12;;;;;;;17.77;6.43;;;13.20;37.60;;;;;;4231520;28;20082;-77
2021/04/15 12:21:27;;;;;;;11.40;4.43;;;14.60;38.40;;;;;;4250253;28;20047;-79
2021/04/15 12:23:43;;;;;;;6.45;3.13;;;13.70;37.60;;;;;;4231240;28;20075;-78
2021/04/15 12:26:17;;;;;;;8.38;3.78;;;14.20;37.80;;;;;;4249572;28;20050;-77
2021/04/15 12:28:41;;;;;;;9.52;3.42;;;13.20;39.10;;;;;;4226942;28;20569;-77
2021/04/15 12:30:58;;;;;;;6.45;3.10;;;13.90;37.90;;;;;;4242304;28;20043;-77
2021/04/15 12:33:07;;;;;;;12.65;3.55;;;12.80;37.40;;;;;;4223252;28;20056;-77
2021/04/15 12:35:38;;;;;;;5.57;3.30;;;12.70;38.80;;;;;;4219352;28;20159;-78
2021/04/15 12:37:48;;;;;;;14.60;3.10;;;12.90;39.70;;;;;;4223329;28;20519;-76
2021/04/15 12:40:50;;;;;;;9.27;3.45;;;13.60;41.00;;;;;;4241664;28;20124;-77
2021/04/15 12:43:05;;;;;;;10.98;2.55;;;13.80;40.40;;;;;;4239937;28;20057;-76
2021/04/15 12:45:23;;;;;;;7.15;3.08;;;15.50;37.20;;;;;;4223596;28;20060;-76
2021/04/15 12:47:30;;;;;;;13.35;2.85;;;14.90;35.20;;;;;;4223177;28;20579;-74
2021/04/15 12:49:36;;;;;;;16.58;2.85;;;14.00;37.40;;;;;;4226554;28;20047;-75
2021/04/15 12:51:45;;;;;;;6.18;2.83;;;14.10;37.20;;;;;;4246302;28;20054;-76
2021/04/15 12:53:52;;;;;;;14.30;2.90;;;12.90;37.30;;;;;;4228298;28;20575;-75
2021/04/15 12:55:58;;;;;;;15.82;2.90;;;13.40;39.50;;;;;;4245264;28;20104;-78
2021/04/15 12:58:04;;;;;;;5.15;2.17;;;13.90;36.80;;;;;;4228119;28;20108;-78
2021/04/15 13:00:15;;;;;;;12.95;1.83;;;14.70;37.70;;;;;;4244735;28;20384;-77
2021/04/15 13:02:25;;;;;;;9.73;2.40;;;15.40;38.20;;;;;;4246990;27;20047;-78
2021/04/15 13:05:10;;;;;;;10.40;2.55;;;14.10;36.50;;;;;;4227352;28;20098;-79
2021/04/15 13:07:28;;;;;;;7.05;2.45;;;14.40;37.30;;;;;;4224796;28;20043;-75
2021/04/15 13:09:35;;;;;;;16.98;2.92;;;13.80;38.20;;;;;;4224003;28;20052;-76
2021/04/15 13:11:57;;;;;;;6.22;2.47;;;12.90;38.20;;;;;;4241398;28;20046;-78
2021/04/15 13:14:38;;;;;;;8.68;2.40;;;12.90;39.80;;;;;;4203271;28;20074;-79
2021/04/15 13:16:51;;;;;;;24.05;2.72;;;13.70;40.80;;;;;;4214428;28;20059;-79
2021/04/15 13:18:56;;;;;;;14.13;3.20;;;13.80;41.90;;;;;;4230555;28;20067;-78
2021/04/15 13:21:14;;;;;;;7.75;3.17;;;13.40;40.30;;;;;;4194149;28;20059;-78
2021/04/15 13:23:43;;;;;;;25.08;3.10;;;12.80;38.30;;;;;;4231349;28;20117;-80
2021/04/15 13:26:24;;;;;;;9.85;2.90;;;13.40;40.40;;;;;;4230148;28;20046;-77
2021/04/15 13:29:05;;;;;;;6.95;2.33;;;12.50;40.90;;;;;;4232466;28;20195;-80
2021/04/15 13:31:31;;;;;;;9.65;2.53;;;12.60;41.00;;;;;;4221769;28;20191;-76
2021/04/15 13:34:04;;;;;;;13.88;3.13;;;12.90;41.40;;;;;;4232626;28;20059;-76
2021/04/15 13:36:22;;;;;;;13.00;2.35;;;12.30;40.10;;;;;;4233675;28;20130;-77
2021/04/15 13:38:46;;;;;;;11.25;2.50;;;13.30;40.30;;;;;;4213279;28;20067;-76
2021/04/15 13:40:54;;;;;;;4.85;1.98;;;13.90;37.70;;;;;;4232025;28;20051;-78
2021/04/15 13:43:19;;;;;;;11.88;2.40;;;14.60;43.50;;;;;;4213754;28;20044;-78
2021/04/15 13:45:48;;;;;;;10.50;3.47;;;15.10;39.70;;;;;;4230409;28;20067;-75
2021/04/15 13:47:56;;;;;;;11.18;2.35;;;14.80;39.20;;;;;;4229840;28;20059;-76
2021/04/15 13:50:16;;;;;;;10.32;1.90;;;16.40;41.50;;;;;;4229326;28;20036;-76
2021/04/15 13:52:36;;;;;;;8.90;2.10;;;17.30;38.20;;;;;;4228479;28;20048;-76
2021/04/15 13:54:41;;;;;;;7.18;2.70;;;16.60;32.70;;;;;;4211681;28;20036;-76
2021/04/15 13:57:26;;;;;;;5.80;2.05;;;15.70;34.40;;;;;;4213084;28;20085;-78
2021/04/15 14:00:06;;;;;;;12.07;1.63;;;16.00;36.10;;;;;;4212528;28;20056;-77
2021/04/15 14:02:49;;;;;;;7.05;2.38;;;17.30;37.10;;;;;;4194862;28;20131;-74
2021/04/15 14:04:57;;;;;;;7.65;2.47;;;17.50;31.50;;;;;;4195608;28;20359;-75
2021/04/15 14:07:22;;;;;;;7.28;2.42;;;15.70;32.00;;;;;;4195346;28;20046;-76
2021/04/15 14:09:29;;;;;;;10.90;2.10;;;15.30;33.40;;;;;;4195157;28;20052;-77
2021/04/15 14:11:54;;;;;;;5.55;1.50;;;16.40;35.80;;;;;;4193121;28;20075;-74
2021/04/15 14:14:01;;;;;;;10.73;1.90;;;17.00;34.80;;;;;;4194328;28;20102;-74
2021/04/15 14:16:05;;;;;;;15.10;2.15;;;17.20;33.00;;;;;;4194701;28;20080;-76
2021/04/15 14:18:23;;;;;;;6.43;1.77;;;17.60;33.60;;;;;;4196893;28;20044;-75
2021/04/15 14:20:37;;;;;;;6.07;1.67;;;16.80;34.10;;;;;;4195441;28;20119;-74
2021/04/15 14:22:42;;;;;;;11.90;1.95;;;16.90;33.50;;;;;;4197805;28;20397;-75
2021/04/15 14:24:55;;;;;;;15.38;3.03;;;16.80;34.60;;;;;;4195889;28;20153;-74
2021/04/15 14:27:10;;;;;;;24.00;3.10;;;15.40;35.30;;;;;;4195935;28;20056;-77
2021/04/15 14:29:25;;;;;;;4.32;2.17;;;14.70;36.20;;;;;;4197311;28;20131;-78
2021/04/15 14:31:39;;;;;;;11.45;3.40;;;14.10;36.50;;;;;;4197811;28;20076;-74
2021/04/15 14:33:44;;;;;;;10.80;2.78;;;14.10;37.40;;;;;;4199548;28;20053;-76
2021/04/15 14:35:48;;;;;;;;;;;13.90;37.50;;;;;;4202194;28;20435;-73
2021/04/15 14:37:55;;;;;;;5.35;2.13;;;15.00;37.50;;;;;;4200399;28;19924;-76
2021/04/15 14:40:18;;;;;;;4.90;2.15;;;14.90;38.60;;;;;;4197528;28;20499;-75
2021/04/15 14:42:39;;;;;;;4.97;2.10;;;14.20;37.20;;;;;;4198726;28;20056;-77
2021/04/15 14:44:44;;;;;;;6.80;1.88;;;14.40;38.50;;;;;;4197647;28;20056;-75
2021/04/15 14:46:54;;;;;;;3.50;2.35;;;14.80;37.30;;;;;;4195461;28;20121;-77
2021/04/15 14:49:10;;;;;;;8.60;2.47;;;14.20;37.20;;;;;;4194213;28;20062;-73
2021/04/15 14:51:25;;;;;;;7.82;1.95;;;13.60;36.10;;;;;;4195281;28;20472;-73
2021/04/15 14:53:33;;;;;;;4.38;1.90;;;14.00;37.30;;;;;;4193732;28;20151;-74
2021/04/15 14:55:40;;;;;;;3.72;2.00;;;13.60;35.80;;;;;;4194768;28;20044;-74
2021/04/15 14:57:51;;;;;;;9.90;2.58;;;13.50;37.10;;;;;;4193615;28;20449;-76
2021/04/15 15:00:09;;;;;;;12.20;2.10;;;12.90;36.80;;;;;;4195115;28;20048;-73
2021/04/15 15:02:20;;;;;;;10.05;2.58;;;13.70;37.80;;;;;;4196534;28;20060;-75
2021/04/15 15:04:30;;;;;;;15.77;2.35;;;13.30;38.00;;;;;;4196244;28;20064;-75
2021/04/15 15:06:39;;;;;;;9.32;2.10;;;13.70;41.30;;;;;;4196714;28;20459;-75
2021/04/15 15:08:46;;;;;;;8.82;2.08;;;13.70;37.00;;;;;;4197540;28;20040;-75
2021/04/15 15:10:57;;;;;;;6.80;2.20;;;13.80;38.00;;;;;;4199236;28;20052;-75
2021/04/15 15:13:06;;;;;;;11.15;1.90;;;14.40;37.60;;;;;;4196752;28;20067;-73
2021/04/15 15:15:16;;;;;;;7.38;2.40;;;14.90;39.50;;;;;;4178888;28;20041;-75
2021/04/15 15:17:28;;;;;;;21.13;2.05;;;13.50;38.40;;;;;;4189186;28;20171;-74
2021/04/15 15:19:40;;;;;;;8.93;2.00;;;13.70;41.80;;;;;;4196931;28;20508;-74
2021/04/15 15:21:50;;;;;;;4.40;1.80;;;12.90;38.50;;;;;;4200325;28;20470;-74
2021/04/15 15:24:08;;;;;;;15.40;2.13;;;13.00;40.00;;;;;;4205054;28;20084;-75
2021/04/15 15:26:26;;;;;;;12.60;2.17;;;13.20;38.00;;;;;;4199687;28;20048;-75
2021/04/15 15:28:31;;;;;;;10.75;2.20;;;13.00;39.50;;;;;;4198945;28;20508;-74
2021/04/15 15:30:55;;;;;;;10.05;2.80;;;12.70;41.10;;;;;;4199671;28;20059;-75
2021/04/15 15:33:20;;;;;;;6.65;2.45;;;13.00;38.20;;;;;;4198654;28;20045;-76
2021/04/15 15:35:32;;;;;;;8.68;2.20;;;13.20;40.00;;;;;;4196499;28;20052;-75
2021/04/15 15:38:00;;;;;;;6.95;1.95;;;13.80;38.00;;;;;;4197239;28;20044;-73
2021/04/15 15:40:36;;;;;;;6.82;2.22;;;13.30;37.70;;;;;;4187878;28;20088;-73
2021/04/15 15:43:14;;;;;;;8.13;2.08;;;13.10;38.00;;;;;;4190400;28;20059;-74
2021/04/15 15:45:21;;;;;;;7.93;2.20;;;12.50;39.40;;;;;;4200535;28;20049;-73
2021/04/15 15:47:46;;;;;;;6.63;2.03;;;13.10;39.10;;;;;;4202275;28;20051;-72
2021/04/15 15:50:09;;;;;;;4.55;1.98;;;13.30;37.00;;;;;;4203175;28;20053;-72
2021/04/15 15:52:30;;;;;;;5.03;1.70;;;13.10;38.80;;;;;;4186209;28;20061;-74
2021/04/15 15:54:47;;;;;;;3.67;1.40;;;13.00;40.80;;;;;;4187530;28;20103;-74
2021/04/15 15:56:53;;;;;;;14.48;2.83;;;13.10;37.70;;;;;;4203622;28;20127;-74
2021/04/15 15:59:19;;;;;;;10.75;1.95;;;13.00;37.60;;;;;;4204335;28;20064;-74
2021/04/15 16:01:25;;;;;;;15.37;2.50;;;13.80;35.70;;;;;;4213104;28;20071;-77
2021/04/15 16:03:48;;;;;;;4.88;1.70;;;13.30;34.50;;;;;;4220431;28;20059;-76
2021/04/15 16:05:53;;;;;;;2.70;1.40;;;13.00;37.60;;;;;;4219191;28;20048;-75
2021/04/15 16:08:11;;;;;;;3.05;1.45;;;13.90;36.50;;;;;;4209698;28;20117;-75
2021/04/15 16:10:27;;;;;;;5.70;2.00;;;14.10;37.40;;;;;;4212374;28;20065;-76
2021/04/15 16:12:39;;;;;;;4.10;1.58;;;14.60;33.10;;;;;;4213206;28;20518;-76
2021/04/15 16:14:46;;;;;;;8.00;2.33;;;14.50;35.20;;;;;;4211660;28;20056;-75
2021/04/15 16:16:51;;;;;;;9.27;1.85;;;14.10;35.10;;;;;;4216624;28;20101;-74
2021/04/15 16:18:56;;;;;;;2.75;1.80;;;14.30;36.40;;;;;;4218501;28;20113;-74
2021/04/15 16:21:04;;;;;;;6.35;2.28;;;14.00;34.70;;;;;;4219669;28;20055;-74
2021/04/15 16:23:14;;;;;;;4.45;1.63;;;14.00;34.60;;;;;;4216431;28;20047;-74
2021/04/15 16:25:25;;;;;;;7.10;1.80;;;13.90;34.70;;;;;;4217700;28;20135;-76
2021/04/15 16:27:33;;;;;;;8.65;1.40;;;14.40;34.90;;;;;;4219278;28;20052;-74
2021/04/15 16:29:40;;;;;;;18.58;2.20;;;15.00;35.10;;;;;;4216063;28;20111;-76
2021/04/15 16:31:51;;;;;;;8.70;2.33;;;14.90;34.70;;;;;;4216103;28;20082;-74
2021/04/15 16:34:04;;;;;;;9.18;2.70;;;14.80;34.20;;;;;;4214502;28;20048;-73
2021/04/15 16:36:12;;;;;;;8.10;2.22;;;14.30;34.60;;;;;;4215960;28;20115;-75
2021/04/15 16:38:25;;;;;;;8.15;2.10;;;13.80;35.60;;;;;;4212499;28;20048;-74
2021/04/15 16:40:30;;;;;;;4.53;1.30;;;14.70;36.30;;;;;;4217030;28;20131;-76
2021/04/15 16:42:39;;;;;;;7.35;2.03;;;15.60;38.00;;;;;;4216242;28;20105;-73
2021/04/15 16:44:43;;;;;;;9.05;1.88;;;15.00;34.50;;;;;;4215474;28;20050;-76
2021/04/15 16:46:56;;;;;;;4.03;1.20;;;16.50;36.70;;;;;;4214367;28;20075;-76
2021/04/15 16:49:15;;;;;;;12.45;1.40;;;17.10;35.50;;;;;;4213213;28;20472;-76
2021/04/15 16:51:21;;;;;;;9.75;2.15;;;18.30;34.70;;;;;;4217991;28;20060;-78
2021/04/15 16:53:27;;;;;;;6.05;1.25;;;18.80;33.00;;;;;;4217094;28;20060;-77
2021/04/15 16:55:36;;;;;;;7.18;2.10;;;19.20;32.90;;;;;;4215403;28;20070;-76
2021/04/15 16:57:44;;;;;;;8.05;1.58;;;18.70;32.20;;;;;;4213152;28;20059;-76
2021/04/15 16:59:48;;;;;;;7.45;1.48;;;18.90;32.60;;;;;;4211362;28;20407;-75
2021/04/15 17:01:57;;;;;;;10.52;2.30;;;18.80;33.60;;;;;;4212304;28;20060;-77
2021/04/15 17:04:02;;;;;;;23.83;2.33;;;18.80;31.80;;;;;;4212309;28;20040;-75
2021/04/15 17:06:12;;;;;;;12.27;2.15;;;19.20;31.40;;;;;;4212334;28;20516;-78
2021/04/15 17:08:24;;;;;;;10.82;2.30;;;19.20;31.90;;;;;;4211064;28;20052;-76
2021/04/15 17:10:33;;;;;;;19.55;2.80;;;18.70;31.30;;;;;;4212662;28;20093;-76
2021/04/15 17:12:45;;;;;;;12.27;2.30;;;17.10;34.50;;;;;;4215675;28;20052;-76
2021/04/15 17:14:58;;;;;;;5.78;2.35;;;16.50;32.40;;;;;;4213924;28;20044;-77
2021/04/15 17:17:05;;;;;;;5.50;1.98;;;16.10;35.20;;;;;;4214521;28;20056;-75
2021/04/15 17:19:10;;;;;;;16.92;2.42;;;15.70;32.50;;;;;;4215499;28;20104;-77
2021/04/15 17:21:21;;;;;;;16.83;2.42;;;15.60;33.60;;;;;;4214755;28;20102;-75
2021/04/15 17:23:29;;;;;;;7.50;2.47;;;16.10;35.40;;;;;;4214241;28;20511;-76
2021/04/15 17:25:38;;;;;;;17.60;2.90;;;15.00;33.00;;;;;;4209670;28;20048;-76
2021/04/15 17:27:46;;;;;;;9.13;2.90;;;13.90;35.20;;;;;;4214832;28;20076;-77
2021/04/15 17:29:53;;;;;;;9.82;2.20;;;13.60;36.90;;;;;;4216617;28;20048;-75
2021/04/15 17:32:07;;;;;;;16.08;2.50;;;13.30;38.70;;;;;;4215449;28;20587;-74
2021/04/15 17:34:13;;;;;;;11.85;2.45;;;14.30;38.30;;;;;;4214831;28;20044;-77
2021/04/15 17:36:27;;;;;;;19.48;3.47;;;15.10;36.40;;;;;;4214154;28;20052;-75
2021/04/15 17:38:36;;;;;;;7.18;2.50;;;14.50;37.10;;;;;;4214459;28;20048;-75
2021/04/15 17:40:43;;;;;;;11.70;2.30;;;14.60;35.40;;;;;;4211298;28;20051;-75
2021/04/15 17:42:48;;;;;;;5.25;2.20;;;14.60;36.50;;;;;;4198425;28;20045;-75
2021/04/15 17:44:55;;;;;;;10.15;2.15;;;14.40;34.80;;;;;;4205867;28;20491;-75
2021/04/15 17:47:00;;;;;;;;;;;14.50;35.80;;;;;;4216732;28;20078;-76
2021/04/15 17:49:05;;;;;;;3.92;1.85;;;15.30;37.30;;;;;;4215461;28;19920;-76
2021/04/15 17:51:13;;;;;;;7.43;1.80;;;15.60;32.20;;;;;;4217031;28;20051;-75
2021/04/15 17:53:23;;;;;;;7.43;2.30;;;16.30;35.00;;;;;;4216252;28;20055;-76
2021/04/15 17:55:35;;;;;;;5.32;1.90;;;15.30;33.50;;;;;;4214448;28;20134;-75
2021/04/15 17:57:39;;;;;;;6.00;2.45;;;15.10;35.50;;;;;;4217089;28;20056;-76
2021/04/15 17:59:46;;;;;;;6.70;2.50;;;15.10;35.50;;;;;;4218103;28;20044;-76
2021/04/15 18:01:49;;;;;;;8.60;2.08;;;15.50;35.60;;;;;;4215177;28;20056;-76
2021/04/15 18:03:54;;;;;;;8.13;2.63;;;15.00;35.70;;;;;;4213190;28;20060;-76
2021/04/15 18:06:01;;;;;;;5.20;2.25;;;14.90;36.20;;;;;;4213674;28;20204;-77
2021/04/15 18:08:05;;;;;;;8.38;3.15;;;14.70;37.30;;;;;;4214039;28;20051;-76
2021/04/15 18:10:13;;;;;;;6.97;3.60;;;14.50;37.00;;;;;;4215731;28;20045;-76
2021/04/15 18:12:16;;;;;;;6.57;3.22;;;14.70;39.40;;;;;;4221899;28;20147;-76
2021/04/15 18:14:19;;;;;;;7.28;3.22;;;13.60;38.90;;;;;;4216830;28;20454;-76
2021/04/15 18:16:23;;;;;;;9.18;3.22;;;13.60;38.10;;;;;;4215366;28;20047;-76
2021/04/15 18:18:36;;;;;;;7.35;4.72;;;14.50;38.20;;;;;;4214237;28;20123;-75
2021/04/15 18:20:43;;;;;;;8.52;4.80;;;15.20;38.50;;;;;;4213135;28;20055;-76
2021/04/15 18:22:52;;;;;;;7.97;2.90;;;15.10;37.20;;;;;;4214398;28;20067;-76
2021/04/15 18:25:11;;;;;;;5.95;3.70;;;13.60;36.40;;;;;;4213723;28;20145;-76
2021/04/15 18:27:17;;;;;;;5.00;2.72;;;14.00;40.90;;;;;;4216384;28;20044;-76
2021/04/15 18:29:26;;;;;;;7.72;2.97;;;14.00;38.30;;;;;;4217506;28;20522;-75
2021/04/15 18:31:33;;;;;;;4.93;2.47;;;14.40;37.40;;;;;;4215683;28;20044;-75
2021/04/15 18:33:44;;;;;;;6.38;2.60;;;13.70;36.90;;;;;;4215271;28;20071;-75
2021/04/15 18:36:07;;;;;;;8.30;2.63;;;14.70;37.10;;;;;;4214601;28;20058;-74
2021/04/15 18:38:20;;;;;;;5.70;2.47;;;14.60;37.70;;;;;;4215563;28;20055;-77
2021/04/15 18:40:36;;;;;;;6.85;2.75;;;15.20;36.40;;;;;;4197531;28;20049;-77
2021/04/15 18:42:47;;;;;;;4.80;2.50;;;15.10;36.90;;;;;;4196339;28;20048;-76
2021/04/15 18:44:55;;;;;;;8.90;2.70;;;15.30;36.80;;;;;;4205406;28;20060;-76
2021/04/15 18:47:00;;;;;;;5.30;2.95;;;14.70;34.80;;;;;;4214605;28;20093;-75
2021/04/15 18:49:07;;;;;;;6.80;3.00;;;14.90;37.60;;;;;;4212130;28;20707;-77
2021/04/15 18:51:14;;;;;;;18.00;3.30;;;15.20;36.90;;;;;;4213122;28;20054;-77
2021/04/15 18:53:21;;;;;;;14.00;3.42;;;14.50;36.30;;;;;;4196874;28;20055;-75
2021/04/15 18:55:29;;;;;;;9.95;3.03;;;14.70;36.30;;;;;;4211034;28;20145;-76
2021/04/15 18:57:38;;;;;;;18.38;3.97;;;14.10;37.90;;;;;;4210935;28;20381;-74
2021/04/15 18:59:49;;;;;;;8.63;3.22;;;15.30;38.20;;;;;;4212256;28;20068;-79
2021/04/15 19:02:10;;;;;;;7.57;3.63;;;15.00;37.70;;;;;;4211316;28;20071;-75
2021/04/15 19:04:12;;;;;;;8.07;3.30;;;14.10;38.50;;;;;;4214297;28;20131;-75
2021/04/15 19:06:14;;;;;;;5.88;2.80;;;14.50;37.60;;;;;;4216981;28;20093;-73
